Time;durP1;ratioP1;P1;durP2;ratioP2;P2;SDS_P1;SDS_P2;PMS_P1;PMS_P2;Temp;Humidity;BMP_temperature;BMP_pressure;BME280_temperature;BME280_humidity;BME280_pressure;Samples;Min_cycle;Max_cycle;Signal;HPM_P1;HPM_P2
2023/04/20 00:00:10;;;;;;;5.50;3.38;;;;;;;13.16;100.00;100908.56;2076515;28;20573;-75
2023/04/20 00:01:35;;;;;;;4.80;3.03;;;;;;;13.16;100.00;100907.69;2075898;28;20409;-75
2023/04/20 00:02:57;;;;;;;7.38;3.67;;;;;;;13.13;100.00;100908.53;2076690;28;20501;-75
2023/04/20 00:04:21;;;;;;;8.30;3.88;;;;;;;13.11;100.00;100901.44;2069264;28;20148;-75
2023/04/20 00:05:44;;;;;;;7.32;4.28;;;;;;;13.08;100.00;100902.28;2075471;28;20651;-76
2023/04/20 00:07:05;;;;;;;7.18;4.22;;;;;;;13.07;100.00;100908.47;2068576;28;20046;-75
2023/04/20 00:08:28;;;;;;;11.50;4.72;;;;;;;13.07;100.00;100902.28;2066459;28;20490;-75
2023/04/20 00:09:49;;;;;;;7.93;4.38;;;;;;;13.04;100.00;100904.91;2072103;28;20084;-75
2023/04/20 00:11:11;;;;;;;5.53;3.30;;;;;;;13.00;100.00;100913.69;2066894;28;20445;-75
2023/04/20 00:12:32;;;;;;;7.93;4.50;;;;;;;12.99;100.00;100910.19;2080948;28;20340;-75
2023/04/20 00:13:55;;;;;;;8.38;4.40;;;;;;;12.98;100.00;100907.53;2079032;28;20055;-75
2023/04/20 00:15:17;;;;;;;9.75;5.40;;;;;;;12.98;100.00;100910.16;2075449;28;20510;-75
2023/04/20 00:16:39;;;;;;;10.27;5.00;;;;;;;12.97;100.00;100913.69;2078754;28;20140;-75
2023/04/20 00:18:01;;;;;;;11.07;6.03;;;;;;;12.96;100.00;100907.50;2077498;28;20048;-75
2023/04/20 00:19:27;;;;;;;10.02;5.82;;;;;;;12.96;100.00;100909.25;2070380;28;20053;-74
2023/04/20 00:20:49;;;;;;;14.85;6.53;;;;;;;12.93;100.00;100907.47;2079334;28;20548;-75
2023/04/20 00:22:11;;;;;;;7.43;4.10;;;;;;;12.88;100.00;100901.25;2085816;28;20776;-75
2023/04/20 00:23:33;;;;;;;8.60;4.10;;;;;;;12.85;100.00;100906.53;2070953;28;20045;-75
2023/04/20 00:24:55;;;;;;;5.65;3.60;;;;;;;12.84;100.00;100910.06;2073958;28;20062;-74
2023/04/20 00:26:16;;;;;;;7.85;3.85;;;;;;;12.85;100.00;100905.66;2082937;28;20566;-75
2023/04/20 00:27:43;;;;;;;8.07;4.05;;;;;;;12.87;100.00;100906.53;2070898;28;20062;-75
2023/04/20 00:29:04;;;;;;;4.95;3.17;;;;;;;12.88;100.00;100908.31;2065875;28;20045;-75
2023/04/20 00:30:27;;;;;;;5.25;3.25;;;;;;;12.90;100.00;100909.22;2068490;28;20124;-74
2023/04/20 00:31:48;;;;;;;4.72;2.78;;;;;;;12.90;100.00;100907.44;2061102;28;20049;-75
2023/04/20 00:33:10;;;;;;;5.70;3.30;;;;;;;12.93;100.00;100909.25;2066077;28;20413;-75
2023/04/20 00:34:33;;;;;;;5.63;3.05;;;;;;;12.96;100.00;100903.97;2072424;28;20045;-75
2023/04/20 00:35:56;;;;;;;6.43;3.00;;;;;;;12.98;100.00;100907.53;2076331;28;20080;-75
2023/04/20 00:37:19;;;;;;;5.20;3.00;;;;;;;12.99;100.00;100899.59;2069057;28;20542;-75
2023/04/20 00:38:40;;;;;;;6.45;3.55;;;;;;;13.00;100.00;100900.44;2075589;28;20422;-75
2023/04/20 00:40:03;;;;;;;5.30;3.15;;;;;;;12.98;100.00;100900.47;2067103;28;20064;-75
2023/04/20 00:41:26;;;;;;;6.13;4.00;;;;;;;12.98;100.00;100899.56;2069323;28;20038;-74
2023/04/20 00:42:47;;;;;;;7.60;3.92;;;;;;;12.95;100.00;100892.47;2067351;28;20034;-75
2023/04/20 00:44:12;;;;;;;7.05;4.05;;;;;;;12.94;100.00;100892.44;2067778;28;20050;-75
2023/04/20 00:45:34;;;;;;;8.07;4.20;;;;;;;12.91;100.00;100900.38;2068357;28;20060;-75
2023/04/20 00:46:56;;;;;;;6.97;3.70;;;;;;;12.88;100.00;100895.94;2065015;28;20296;-75
2023/04/20 00:48:19;;;;;;;9.07;4.35;;;;;;;12.84;100.00;100899.47;2074561;28;20064;-75
2023/04/20 00:49:42;;;;;;;9.80;4.10;;;;;;;12.83;100.00;100902.09;2071041;28;20054;-75
2023/04/20 00:51:06;;;;;;;6.90;3.75;;;;;;;12.82;100.00;100900.31;2083419;28;20052;-76
2023/04/20 00:52:30;;;;;;;6.57;3.60;;;;;;;12.78;100.00;100899.41;2077448;28;20402;-75
2023/04/20 00:53:54;;;;;;;7.50;3.85;;;;;;;12.78;100.00;100892.34;2068929;28;20042;-75
2023/04/20 00:55:17;;;;;;;8.95;4.97;;;;;;;12.76;100.00;100890.53;2077357;28;20085;-75
2023/04/20 00:56:39;;;;;;;8.25;4.00;;;;;;;12.74;100.00;100894.94;2071714;28;20054;-75
2023/04/20 00:58:03;;;;;;;9.23;4.75;;;;;;;12.73;100.00;100887.88;2062923;28;20062;-75
2023/04/20 00:59:28;;;;;;;7.93;3.63;;;;;;;12.72;100.00;100887.00;2071254;28;20391;-75
2023/04/20 01:00:50;;;;;;;6.00;3.50;;;;;;;12.70;100.00;100879.91;2068977;28;20049;-75
2023/04/20 01:02:12;;;;;;;6.07;3.45;;;;;;;12.71;100.00;100893.16;2074587;28;20490;-75
2023/04/20 01:03:37;;;;;;;7.53;3.50;;;;;;;12.73;100.00;100887.88;2069446;28;20084;-75
2023/04/20 01:05:02;;;;;;;6.78;3.22;;;;;;;12.73;100.00;100886.09;2066315;28;20593;-75
2023/04/20 01:06:26;;;;;;;6.10;3.15;;;;;;;12.73;100.00;100885.25;2065218;28;20046;-75
2023/04/20 01:07:49;;;;;;;5.82;3.47;;;;;;;12.73;100.00;100880.78;2072001;28;20046;-76
2023/04/20 01:09:12;;;;;;;9.57;4.13;;;;;;;12.71;100.00;100882.56;2085021;28;20079;-75
2023/04/20 01:10:35;;;;;;;6.45;3.28;;;;;;;12.68;100.00;100881.63;2076691;28;20068;-76
2023/04/20 01:11:56;;;;;;;7.05;3.25;;;;;;;12.64;100.00;100874.56;2078872;28;20192;-75
2023/04/20 01:13:18;;;;;;;6.50;3.50;;;;;;;12.61;100.00;100879.81;2084168;28;20127;-75
2023/04/20 01:14:39;;;;;;;7.25;3.72;;;;;;;12.58;100.00;100874.50;2086912;28;20435;-75
2023/04/20 01:16:02;;;;;;;5.93;3.60;;;;;;;12.54;100.00;100873.56;2076113;28;20096;-75
2023/04/20 01:17:23;;;;;;;6.55;3.67;;;;;;;12.53;100.00;100876.22;2068120;28;20049;-75
2023/04/20 01:18:48;;;;;;;6.60;3.50;;;;;;;12.50;100.00;100879.72;2077546;28;20049;-75
2023/04/20 01:20:12;;;;;;;6.43;3.47;;;;;;;12.50;100.00;100873.53;2085107;28;20049;-75
2023/04/20 01:21:35;;;;;;;5.97;3.30;;;;;;;12.47;100.00;100874.38;2070496;28;20417;-75
2023/04/20 01:22:57;;;;;;;6.28;2.95;;;;;;;12.49;100.00;100874.41;2070825;28;20049;-75
2023/04/20 01:24:20;;;;;;;5.75;3.05;;;;;;;12.49;100.00;100874.41;2078676;28;20382;-75
2023/04/20 01:25:41;;;;;;;6.07;3.20;;;;;;;12.50;100.00;100873.53;2067489;28;20046;-75
2023/04/20 01:27:03;;;;;;;7.50;3.47;;;;;;;12.49;100.00;100872.63;2067168;28;20046;-75
2023/04/20 01:28:25;;;;;;;6.07;3.22;;;;;;;12.51;100.00;100875.31;2073118;28;20445;-75
2023/04/20 01:29:48;;;;;;;6.28;3.65;;;;;;;12.50;100.00;100877.06;2072944;28;20362;-75
2023/04/20 01:31:10;;;;;;;8.52;3.20;;;;;;;12.51;100.00;100868.25;2068810;28;20584;-75
2023/04/20 01:32:32;;;;;;;7.63;3.30;;;;;;;12.53;100.00;100882.41;2074104;28;20042;-76
2023/04/20 01:33:54;;;;;;;4.70;2.78;;;;;;;12.54;100.00;100873.56;2070456;28;20046;-75
2023/04/20 01:35:17;;;;;;;4.45;2.70;;;;;;;12.56;100.00;100868.28;2069585;28;20077;-75
2023/04/20 01:36:40;;;;;;;5.80;2.70;;;;;;;12.58;100.00;100871.84;2070539;28;20089;-75
2023/04/20 01:38:03;;;;;;;4.45;2.75;;;;;;;12.60;100.00;100868.31;2070578;28;20176;-75
2023/04/20 01:39:26;;;;;;;5.53;2.38;;;;;;;12.63;100.00;100873.66;2073791;28;20065;-75
2023/04/20 01:40:48;;;;;;;5.97;2.55;;;;;;;12.66;100.00;100880.75;2075540;28;20569;-75
2023/04/20 01:42:10;;;;;;;5.35;2.50;;;;;;;12.69;100.00;100872.81;2078672;28;20604;-75
2023/04/20 01:43:36;;;;;;;6.57;2.90;;;;;;;12.75;100.00;100868.47;2068437;28;20505;-75
2023/04/20 01:44:58;;;;;;;5.05;2.85;;;;;;;12.79;100.00;100861.44;2076320;28;20565;-75
2023/04/20 01:46:21;;;;;;;6.93;2.70;;;;;;;12.83;100.00;100872.94;2064855;28;20093;-75
2023/04/20 01:47:42;;;;;;;6.55;2.95;;;;;;;12.84;100.00;100867.66;2075316;28;20470;-76
2023/04/20 01:49:05;;;;;;;3.72;2.83;;;;;;;12.86;100.00;100873.88;2078206;28;20053;-75
2023/04/20 01:50:26;;;;;;;5.18;2.72;;;;;;;12.87;100.00;100869.44;2069625;28;20042;-74
2023/04/20 01:51:48;;;;;;;5.28;2.95;;;;;;;12.87;100.00;100874.72;2075284;28;20503;-75
2023/04/20 01:53:12;;;;;;;6.60;2.90;;;;;;;12.86;100.00;100868.56;2070429;28;20049;-76
2023/04/20 01:54:36;;;;;;;5.80;2.58;;;;;;;12.86;100.00;100862.38;2075148;28;20111;-75
2023/04/20 01:55:59;;;;;;;7.65;3.58;;;;;;;12.85;100.00;100866.78;2078800;28;20053;-75
2023/04/20 01:57:20;;;;;;;5.38;2.97;;;;;;;12.85;100.00;100863.25;2077173;28;20099;-75
2023/04/20 01:58:43;;;;;;;6.07;3.15;;;;;;;12.85;100.00;100865.91;2069733;28;20060;-74
2023/04/20 02:00:07;;;;;;;6.65;3.17;;;;;;;12.83;100.00;100865.88;2068310;28;20041;-76
2023/04/20 02:01:36;;;;;;;5.35;2.85;;;;;;;12.81;100.00;100867.63;2077661;28;20463;-75
2023/04/20 02:02:57;;;;;;;5.68;2.85;;;;;;;12.79;100.00;100864.09;2062087;28;20430;-75
2023/04/20 02:04:20;;;;;;;5.13;2.38;;;;;;;12.77;100.00;100864.06;2069075;28;20565;-74
2023/04/20 02:05:41;;;;;;;5.80;3.47;;;;;;;12.76;100.00;100854.34;2075156;28;20580;-75
2023/04/20 02:07:04;;;;;;;4.65;2.75;;;;;;;12.74;100.00;100866.69;2076975;28;20157;-75
2023/04/20 02:08:27;;;;;;;7.72;3.45;;;;;;;12.70;100.00;100864.00;2064845;28;20089;-75
2023/04/20 02:09:49;;;;;;;5.18;3.28;;;;;;;12.68;100.00;100861.34;2074964;28;20079;-75
2023/04/20 02:11:11;;;;;;;5.85;3.10;;;;;;;12.69;100.00;100862.22;2068879;28;20398;-75
2023/04/20 02:12:33;;;;;;;7.82;3.38;;;;;;;12.68;100.00;100866.63;2070382;28;20511;-75
2023/04/20 02:13:55;;;;;;;7.40;3.40;;;;;;;12.67;100.00;100858.66;2074555;28;20056;-75
2023/04/20 02:15:16;;;;;;;7.53;3.72;;;;;;;12.66;100.00;100857.81;2075634;28;20095;-75
2023/04/20 02:16:39;;;;;;;8.35;3.63;;;;;;;12.65;100.00;100863.97;2068262;28;20557;-75
2023/04/20 02:18:00;;;;;;;7.05;3.10;;;;;;;12.64;100.00;100866.59;2072076;28;20099;-75
2023/04/20 02:19:23;;;;;;;9.27;3.47;;;;;;;12.63;100.00;100865.72;2077187;28;20045;-75
2023/04/20 02:20:44;;;;;;;8.13;3.55;;;;;;;12.63;100.00;100863.06;2070376;28;20160;-75
2023/04/20 02:22:07;;;;;;;7.05;3.17;;;;;;;12.60;100.00;100859.53;2075412;28;20489;-75
2023/04/20 02:23:31;;;;;;;6.68;3.80;;;;;;;12.52;100.00;100864.75;2079987;28;20043;-75
2023/04/20 02:24:52;;;;;;;7.07;3.22;;;;;;;12.47;100.00;100858.50;2072716;28;20137;-75
2023/04/20 02:26:15;;;;;;;7.07;3.28;;;;;;;12.46;100.00;100866.44;2076433;28;20045;-75
2023/04/20 02:27:36;;;;;;;6.03;3.55;;;;;;;12.43;100.00;100867.28;2070256;28;20053;-75
2023/04/20 02:29:00;;;;;;;10.27;3.83;;;;;;;12.43;100.00;100858.47;2071655;28;20082;-75
2023/04/20 02:30:21;;;;;;;6.82;3.38;;;;;;;12.42;100.00;100868.16;2062180;28;20046;-75
2023/04/20 02:31:43;;;;;;;5.80;3.60;;;;;;;12.40;100.00;100861.97;2074521;28;20406;-75
2023/04/20 02:33:06;;;;;;;6.25;3.42;;;;;;;12.40;100.00;100863.75;2072356;28;20271;-75
2023/04/20 02:34:28;;;;;;;5.15;3.10;;;;;;;12.37;100.00;100864.59;2069907;28;20101;-75
2023/04/20 02:35:52;;;;;;;6.15;3.00;;;;;;;12.36;100.00;100862.81;2069809;28;20557;-75
2023/04/20 02:37:13;;;;;;;5.95;2.90;;;;;;;12.37;100.00;100865.47;2083902;28;20520;-75
2023/04/20 02:38:39;;;;;;;5.85;3.13;;;;;;;12.40;100.00;100864.63;2061989;28;20063;-76
2023/04/20 02:40:01;;;;;;;10.40;3.58;;;;;;;12.41;100.00;100866.38;2073220;28;20128;-75
2023/04/20 02:41:25;;;;;;;6.53;3.40;;;;;;;12.38;100.00;100864.59;2072583;28;20050;-75
2023/04/20 02:42:46;;;;;;;5.00;2.90;;;;;;;12.34;100.00;100870.72;2067315;28;20080;-75
2023/04/20 02:44:09;;;;;;;7.57;3.47;;;;;;;12.30;100.00;100868.94;2075467;28;20100;-76
2023/04/20 02:45:31;;;;;;;5.90;3.35;;;;;;;12.32;100.00;100875.13;2069176;28;20150;-75
2023/04/20 02:46:54;;;;;;;6.35;3.30;;;;;;;12.30;100.00;100863.63;2064999;28;20034;-75
2023/04/20 02:48:19;;;;;;;6.90;3.22;;;;;;;12.28;100.00;100869.78;2067136;28;20049;-75
2023/04/20 02:49:40;;;;;;;8.50;3.70;;;;;;;12.26;100.00;100871.53;2067162;28;20045;-75
2023/04/20 02:51:03;;;;;;;7.35;3.75;;;;;;;12.26;100.00;100871.53;2069695;28;20092;-75
2023/04/20 02:52:29;;;;;;;8.13;3.60;;;;;;;12.24;100.00;100871.50;2068731;28;20144;-75
2023/04/20 02:53:54;;;;;;;7.65;3.53;;;;;;;12.22;100.00;100865.31;2066539;28;20050;-75
2023/04/20 02:55:22;;;;;;;6.85;3.60;;;;;;;12.20;100.00;100882.94;2068506;28;20132;-76
2023/04/20 02:56:46;;;;;;;9.52;3.65;;;;;;;12.20;100.00;100876.78;2062483;28;20101;-75
2023/04/20 02:58:09;;;;;;;6.97;3.40;;;;;;;12.21;100.00;100882.06;2075855;28;20052;-75
2023/04/20 03:00:00;;;;;;;6.32;3.22;;;;;;;12.23;100.00;100871.50;2071637;28;20061;-75
2023/04/20 03:01:34;;;;;;;6.97;3.00;;;;;;;12.21;100.00;100873.22;2065941;28;20050;-75
2023/04/20 03:03:06;;;;;;;5.28;2.95;;;;;;;12.19;100.00;100881.16;2069656;28;20046;-75
2023/04/20 03:04:29;;;;;;;5.63;3.10;;;;;;;12.19;100.00;100886.47;2068717;28;20041;-75
2023/04/20 03:06:05;;;;;;;8.73;3.33;;;;;;;12.16;100.00;100873.19;2071765;28;20050;-74
2023/04/20 03:07:28;;;;;;;6.18;2.88;;;;;;;12.10;100.00;100881.06;2072305;28;20312;-75
2023/04/20 03:08:50;;;;;;;6.75;3.17;;;;;;;12.10;100.00;100874.88;2062321;28;20495;-75
2023/04/20 03:10:40;;;;;;;6.45;3.42;;;;;;;12.11;100.00;100876.66;2076892;28;20046;-76
2023/04/20 03:12:11;;;;;;;7.03;3.50;;;;;;;12.11;100.00;100876.66;2070977;28;20469;-75
2023/04/20 03:13:48;;;;;;;8.65;3.30;;;;;;;12.09;100.00;100874.00;2072021;28;20042;-75
2023/04/20 03:15:11;;;;;;;5.85;3.08;;;;;;;12.08;100.00;100866.06;2072894;28;20107;-75
2023/04/20 03:16:52;;;;;;;4.82;2.85;;;;;;;12.03;100.00;100868.63;2072219;28;20049;-75
2023/04/20 03:18:13;;;;;;;5.95;2.83;;;;;;;12.02;100.00;100861.56;2068633;28;20050;-75
2023/04/20 03:19:35;;;;;;;6.10;3.28;;;;;;;12.03;100.00;100867.75;2080577;28;20052;-75
2023/04/20 03:20:57;;;;;;;6.28;3.00;;;;;;;12.01;100.00;100875.69;2075386;28;20049;-75
2023/04/20 03:22:20;;;;;;;6.38;3.25;;;;;;;12.00;100.00;100870.38;2075071;28;20045;-75
2023/04/20 03:23:44;;;;;;;6.88;3.10;;;;;;;12.03;100.00;100879.22;2078434;28;20041;-75
2023/04/20 03:25:07;;;;;;;8.65;4.03;;;;;;;12.05;100.00;100876.59;2075140;28;20063;-75
2023/04/20 03:26:45;;;;;;;8.27;4.53;;;;;;;12.06;100.00;100873.09;2088006;28;20052;-75
2023/04/20 03:28:15;;;;;;;7.43;4.50;;;;;;;12.05;100.00;100871.31;2068534;28;20128;-75
2023/04/20 03:29:37;;;;;;;12.63;4.90;;;;;;;12.04;100.00;100874.81;2073958;28;20053;-75
2023/04/20 03:31:00;;;;;;;11.80;5.32;;;;;;;12.02;100.00;100871.25;2076075;28;20034;-74
2023/04/20 03:32:25;;;;;;;8.40;4.28;;;;;;;12.00;100.00;100871.25;2065408;28;20411;-75
2023/04/20 03:33:46;;;;;;;8.77;4.40;;;;;;;12.01;100.00;100877.44;2064186;28;20181;-75
2023/04/20 03:35:09;;;;;;;7.80;4.70;;;;;;;11.98;100.00;100873.88;2065867;28;20081;-75
2023/04/20 03:36:32;;;;;;;9.68;4.10;;;;;;;11.97;100.00;100872.09;2078146;28;20719;-75
2023/04/20 03:37:55;;;;;;;8.82;5.78;;;;;;;11.93;100.00;100877.34;2069002;28;20708;-75
2023/04/20 03:39:17;;;;;;;7.30;4.32;;;;;;;11.92;100.00;100879.09;2067699;28;20046;-76
2023/04/20 03:40:39;;;;;;;6.82;3.33;;;;;;;11.93;100.00;100874.69;2082354;28;20061;-75
2023/04/20 03:42:03;;;;;;;8.57;3.42;;;;;;;11.92;100.00;100876.47;2072235;28;20080;-75
2023/04/20 03:43:25;;;;;;;6.75;3.40;;;;;;;11.91;100.00;100868.50;2066235;28;20580;-75
2023/04/20 03:44:47;;;;;;;8.18;3.70;;;;;;;11.89;100.00;100873.75;2058689;28;20054;-75
2023/04/20 03:46:08;;;;;;;7.75;3.80;;;;;;;11.88;100.00;100873.75;2060942;28;21604;-75
2023/04/20 03:47:30;;;;;;;8.07;4.00;;;;;;;11.84;100.00;100869.28;2065398;28;20046;-75
2023/04/20 03:48:52;;;;;;;8.27;4.57;;;;;;;11.81;100.00;100878.09;2071486;28;20084;-75
2023/04/20 03:50:14;;;;;;;7.07;4.35;;;;;;;11.81;100.00;100872.81;2066544;28;20397;-75
2023/04/20 03:51:37;;;;;;;8.95;4.47;;;;;;;11.83;100.00;100871.03;2069628;28;20442;-75
2023/04/20 03:52:59;;;;;;;8.07;3.97;;;;;;;11.85;100.00;100868.41;2061545;28;20049;-75
2023/04/20 03:54:21;;;;;;;5.80;3.40;;;;;;;11.88;100.00;100871.13;2069069;28;20109;-76
2023/04/20 03:55:43;;;;;;;8.82;3.33;;;;;;;11.91;100.00;100869.38;2068393;28;20057;-76
2023/04/20 03:57:11;;;;;;;5.75;3.10;;;;;;;11.97;100.00;100866.81;2068959;28;20092;-75
2023/04/20 03:58:34;;;;;;;7.38;3.22;;;;;;;12.04;100.00;100874.81;2069516;28;20124;-75
2023/04/20 04:00:09;;;;;;;7.82;3.33;;;;;;;12.05;100.00;100873.94;2060821;28;20105;-75
2023/04/20 04:01:41;;;;;;;7.55;3.53;;;;;;;12.09;100.00;100873.09;2070942;28;20498;-75
2023/04/20 04:03:02;;;;;;;8.82;3.70;;;;;;;12.13;100.00;100874.94;2069861;28;20057;-75
2023/04/20 04:04:25;;;;;;;9.00;3.50;;;;;;;12.17;100.00;100874.97;2069268;28;20092;-76
2023/04/20 04:05:47;;;;;;;8.38;3.63;;;;;;;12.22;100.00;100864.41;2072121;28;20437;-75
2023/04/20 04:07:09;;;;;;;5.90;3.10;;;;;;;12.25;100.00;100864.47;2074753;28;20441;-75
2023/04/20 04:08:35;;;;;;;6.28;3.33;;;;;;;12.28;100.00;100872.41;2066712;28;20132;-75
2023/04/20 04:09:58;;;;;;;7.55;3.58;;;;;;;12.37;100.00;100869.88;2078131;28;20067;-76
2023/04/20 04:11:20;;;;;;;9.63;3.83;;;;;;;12.42;100.00;100876.09;2074293;28;20042;-76
2023/04/20 04:12:45;;;;;;;6.80;3.15;;;;;;;12.50;100.00;100877.06;2085645;28;20082;-76
2023/04/20 04:14:07;;;;;;;6.90;3.50;;;;;;;12.58;100.00;100877.16;2071950;28;20466;-76
2023/04/20 04:15:32;;;;;;;9.25;3.60;;;;;;;12.68;100.00;100879.00;2067136;28;20076;-75
2023/04/20 04:16:59;;;;;;;6.45;3.15;;;;;;;12.76;100.00;100883.50;2068147;28;20045;-76
2023/04/20 04:18:21;;;;;;;5.35;2.70;;;;;;;12.88;100.00;100884.44;2065668;28;20052;-76
2023/04/20 04:19:44;;;;;;;7.30;3.38;;;;;;;12.97;100.00;100880.13;2063084;28;20046;-76
2023/04/20 04:21:09;;;;;;;8.77;3.13;;;;;;;13.06;100.00;100881.97;2066502;28;20464;-77
2023/04/20 04:22:32;;;;;;;9.32;3.65;;;;;;;13.14;100.00;100886.47;2067367;28;20376;-75
2023/04/20 04:24:14;;;;;;;;;;;;;;;13.18;100.00;100886.50;2078849;28;20061;-75
2023/04/20 04:25:47;;;;;;;9.15;3.90;;;;;;;13.26;100.00;100885.66;2064773;28;19980;-75
2023/04/20 04:27:09;;;;;;;5.45;3.13;;;;;;;13.36;100.00;100884.84;2067118;28;20065;-75
2023/04/20 04:28:39;;;;;;;5.65;2.85;;;;;;;13.44;100.00;100888.44;2073708;28;20049;-75
2023/04/20 04:30:10;;;;;;;14.93;6.38;;;;;;;13.51;100.00;100890.25;2069420;28;20197;-75
2023/04/20 04:31:34;;;;;;;12.48;5.63;;;;;;;13.57;100.00;100892.94;2067809;28;20430;-76
2023/04/20 04:33:03;;;;;;;13.75;6.25;;;;;;;13.65;100.00;100894.75;2063764;28;20518;-76
2023/04/20 04:34:29;;;;;;;10.13;4.22;;;;;;;13.73;100.00;100896.53;2064490;28;20038;-75
2023/04/20 04:35:52;;;;;;;8.63;4.43;;;;;;;13.80;100.00;100892.16;2067049;28;20050;-76
2023/04/20 04:37:15;;;;;;;9.13;3.38;;;;;;;13.87;100.00;100893.94;2059181;28;20050;-75
2023/04/20 04:38:45;;;;;;;8.07;3.63;;;;;;;13.97;100.00;100890.47;2067562;28;20145;-76
2023/04/20 04:40:08;;;;;;;6.10;3.35;;;;;;;14.12;100.00;100894.91;2066353;28;20152;-75
2023/04/20 04:41:31;;;;;;;7.22;3.45;;;;;;;14.23;100.00;100898.50;2064198;28;20045;-76
2023/04/20 04:43:06;;;;;;;9.68;3.40;;;;;;;14.36;100.00;100889.69;2068791;28;20043;-76
2023/04/20 04:44:32;;;;;;;8.70;3.72;;;;;;;14.51;100.00;100889.72;2066873;28;20042;-75
2023/04/20 04:45:57;;;;;;;9.45;4.00;;;;;;;14.62;100.00;100893.31;2067000;28;20065;-75
2023/04/20 04:47:20;;;;;;;11.65;4.25;;;;;;;14.75;100.00;100894.22;2073567;28;20041;-75
2023/04/20 04:48:45;;;;;;;10.00;4.68;;;;;;;14.90;100.00;100903.97;2081433;28;20054;-75
2023/04/20 04:50:09;;;;;;;11.50;4.30;;;;;;;15.02;100.00;100898.66;2078707;28;20442;-76
2023/04/20 04:51:32;;;;;;;9.60;3.70;;;;;;;15.13;100.00;100897.75;2068586;28;20057;-76
2023/04/20 04:52:53;;;;;;;10.02;3.75;;;;;;;15.21;100.00;100897.75;2063699;28;20133;-76
2023/04/20 04:54:15;;;;;;;9.93;3.90;;;;;;;15.32;100.00;100900.38;2070832;28;20107;-75
2023/04/20 04:55:37;;;;;;;8.90;3.58;;;;;;;15.43;100.00;100894.13;2085572;28;20433;-76
2023/04/20 04:56:59;;;;;;;6.68;2.92;;;;;;;15.53;100.00;100893.28;2083012;28;20049;-76
2023/04/20 04:58:21;;;;;;;7.07;2.47;;;;;;;15.66;100.00;100899.47;2068971;28;20050;-76
2023/04/20 04:59:44;;;;;;;6.13;2.50;;;;;;;15.81;100.00;100885.22;2068701;28;20046;-76
2023/04/20 05:01:06;;;;;;;8.43;2.50;;;;;;;15.95;100.00;100894.88;2069157;28;20954;-74
2023/04/20 05:02:29;;;;;;;7.25;2.33;;;;;;;16.13;100.00;100891.28;2069355;28;20046;-76
2023/04/20 05:03:51;;;;;;;6.75;1.90;;;;;;;16.31;100.00;100893.84;2061045;28;20057;-76
2023/04/20 05:05:13;;;;;;;6.93;2.35;;;;;;;16.51;100.00;100899.03;2080823;28;20060;-76
2023/04/20 05:06:36;;;;;;;6.30;2.13;;;;;;;16.67;100.00;100894.53;2078501;28;20050;-76
2023/04/20 05:07:57;;;;;;;3.72;1.85;;;;;;;16.85;100.00;100893.50;2076044;28;20054;-76
2023/04/20 05:09:19;;;;;;;6.40;2.05;;;;;;;17.01;100.00;100892.47;2073237;28;20045;-75
2023/04/20 05:10:42;;;;;;;5.47;2.13;;;;;;;17.07;100.00;100892.41;2076521;28;20050;-77
2023/04/20 05:12:04;;;;;;;6.18;1.92;;;;;;;17.13;100.00;100895.91;2064197;28;20042;-75
2023/04/20 05:13:25;;;;;;;5.57;2.13;;;;;;;17.23;100.00;100899.38;2069517;28;20100;-75
2023/04/20 05:14:49;;;;;;;5.25;1.90;;;;;;;17.37;100.00;100885.91;2074156;28;20076;-76
2023/04/20 05:16:12;;;;;;;5.57;2.13;;;;;;;17.48;100.00;100890.22;2065162;28;20078;-76
2023/04/20 05:17:34;;;;;;;5.95;1.60;;;;;;;17.64;100.00;100887.44;2076946;28;20056;-76
2023/04/20 05:18:55;;;;;;;7.25;1.85;;;;;;;17.80;100.00;100889.00;2078370;28;20057;-76
2023/04/20 05:20:18;;;;;;;4.22;1.67;;;;;;;17.94;100.00;100895.06;2068181;28;20041;-76
2023/04/20 05:21:39;;;;;;;7.38;2.08;;;;;;;18.06;100.00;100884.22;2082719;28;20134;-76
2023/04/20 05:23:02;;;;;;;5.65;1.50;;;;;;;18.14;100.00;100901.06;2068974;28;20074;-77
2023/04/20 05:24:24;;;;;;;6.25;1.95;;;;;;;18.23;100.00;100895.59;2074653;28;20049;-75
2023/04/20 05:25:46;;;;;;;9.27;2.05;;;;;;;18.36;100.00;100896.31;2078073;28;20560;-76
2023/04/20 05:27:10;;;;;;;4.82;1.80;;;;;;;18.49;100.00;100891.66;2066806;28;20038;-76
2023/04/20 05:28:33;;;;;;;8.27;2.13;;;;;;;18.59;100.00;100899.53;2074584;28;20445;-76
2023/04/20 05:29:57;;;;;;;6.25;1.60;;;;;;;18.66;100.00;100897.66;2077329;28;20081;-76
2023/04/20 05:31:20;;;;;;;5.80;1.55;;;;;;;18.71;100.00;100898.47;2077715;28;20037;-76
2023/04/20 05:32:41;;;;;;;7.45;1.73;;;;;;;18.79;100.00;100896.56;2074609;28;20045;-76
2023/04/20 05:34:03;;;;;;;4.15;1.50;;;;;;;18.92;100.00;100905.28;2060814;28;20222;-76
2023/04/20 05:35:26;;;;;;;5.45;1.30;;;;;;;19.04;100.00;100905.06;2072928;28;20429;-76
2023/04/20 05:36:48;;;;;;;5.50;1.80;;;;;;;19.16;100.00;100898.66;2071984;28;20128;-75
2023/04/20 05:38:11;;;;;;;5.75;1.50;;;;;;;19.30;100.00;100893.91;2079311;28;20054;-76
2023/04/20 05:39:34;;;;;;;8.20;1.73;;;;;;;19.42;100.00;100897.28;2079180;28;20071;-76
2023/04/20 05:40:55;;;;;;;5.97;1.90;;;;;;;19.57;100.00;100900.59;2074555;28;20738;-76
2023/04/20 05:42:18;;;;;;;6.32;1.90;;;;;;;19.74;100.00;100896.69;2073910;28;20124;-76
2023/04/20 05:43:39;;;;;;;3.35;1.52;;;;;;;19.91;100.00;100899.00;2075600;28;20427;-76
2023/04/20 05:45:04;;;;;;;6.60;3.10;;;;;;;20.05;100.00;100894.25;2075627;28;20727;-77
2023/04/20 05:46:27;;;;;;;6.00;1.55;;;;;;;20.19;100.00;100899.31;2077194;28;20049;-76
2023/04/20 05:47:52;;;;;;;6.97;3.40;;;;;;;20.27;100.00;100892.88;2078236;28;20042;-76
2023/04/20 05:49:14;;;;;;;8.52;3.38;;;;;;;20.38;100.00;100895.34;2071813;28;20053;-76
2023/04/20 05:50:37;;;;;;;6.63;3.20;;;;;;;20.49;100.00;100889.72;2080297;28;20045;-76
2023/04/20 05:52:00;;;;;;;6.35;2.20;;;;;;;20.63;100.00;100895.66;2070439;28;20041;-77
2023/04/20 05:53:22;;;;;;;6.07;1.88;;;;;;;20.71;100.00;100899.03;2083543;28;20049;-77
2023/04/20 05:54:43;;;;;;;7.18;1.65;;;;;;;20.79;100.00;100901.56;2080931;28;20053;-76
2023/04/20 05:56:06;;;;;;;6.15;1.75;;;;;;;20.88;100.00;100898.63;2070184;28;20046;-76
2023/04/20 05:57:29;;;;;;;3.88;1.30;;;;;;;20.93;100.00;100896.75;2077275;28;20049;-76
2023/04/20 05:58:51;;;;;;;7.18;2.80;;;;;;;21.03;100.00;100895.56;2076012;28;20510;-76
2023/04/20 06:00:16;;;;;;;6.53;2.30;;;;;;;21.12;100.00;100900.72;2077542;28;20501;-76
2023/04/20 06:01:38;;;;;;;10.68;4.53;;;;;;;21.26;100.00;100895.03;2067048;28;20057;-76
2023/04/20 06:03:01;;;;;;;7.65;2.60;;;;;;;21.35;100.00;100897.47;2075346;28;20049;-77
2023/04/20 06:04:23;;;;;;;7.43;1.75;;;;;;;21.45;100.00;100899.88;2077725;28;20050;-76
2023/04/20 06:05:46;;;;;;;5.15;1.40;;;;;;;21.56;97.95;100890.63;2076116;28;20053;-76
2023/04/20 06:07:07;;;;;;;5.03;1.38;;;;;;;21.62;96.90;100893.13;2074071;28;20053;-76
2023/04/20 06:08:29;;;;;;;3.78;1.40;;;;;;;21.69;97.30;100895.63;2076269;28;20054;-77
2023/04/20 06:09:51;;;;;;;4.50;1.60;;;;;;;21.76;94.85;100889.16;2070887;28;20433;-77
2023/04/20 06:11:14;;;;;;;4.10;1.30;;;;;;;21.78;91.80;100891.81;2061586;28;20478;-77
2023/04/20 06:12:36;;;;;;;7.35;1.30;;;;;;;21.78;92.23;100898.06;2077879;28;20057;-76
2023/04/20 06:13:59;;;;;;;5.05;1.40;;;;;;;21.84;90.64;100892.50;2076043;28;20075;-76
2023/04/20 06:15:23;;;;;;;5.45;1.58;;;;;;;21.78;89.01;100891.81;2085494;28;20132;-76
2023/04/20 06:16:45;;;;;;;6.72;1.98;;;;;;;21.70;90.29;100894.69;2078343;28;20516;-76
2023/04/20 06:18:08;;;;;;;5.85;2.00;;;;;;;21.76;92.08;100893.63;2079550;28;20056;-76
2023/04/20 06:19:30;;;;;;;4.53;1.73;;;;;;;21.83;91.86;100898.81;2076760;28;20053;-76
2023/04/20 06:20:52;;;;;;;5.60;1.65;;;;;;;21.93;92.08;100899.41;2077271;28;20073;-76
2023/04/20 06:22:14;;;;;;;4.38;1.33;;;;;;;22.06;88.86;100900.84;2078182;28;20050;-76
2023/04/20 06:23:37;;;;;;;3.65;1.13;;;;;;;22.06;87.78;100908.91;2078424;28;20451;-77